Time;durP1;ratioP1;P1;durP2;ratioP2;P2;SDS_P1;SDS_P2;PMS_P1;PMS_P2;Temp;Humidity;BMP_temperature;BMP_pressure;BME280_temperature;BME280_humidity;BME280_pressure;Samples;Min_cycle;Max_cycle;Signal;HPM_P1;HPM_P2
2021/12/17 00:08:50;;;;;;;11.43;6.57;;;;;;;4.57;100.00;101707.25;6731384;26;34247;-71
2021/12/17 00:11:53;;;;;;;8.23;5.40;;;;;;;4.57;100.00;101720.41;6749079;26;34160;-71
2021/12/17 00:14:57;;;;;;;10.38;6.07;;;;;;;4.55;100.00;101709.16;6748959;26;34291;-71
2021/12/17 00:18:09;;;;;;;9.35;5.90;;;;;;;4.58;100.00;101709.81;6749395;26;34159;-71
2021/12/17 00:54:31;;;;;;;10.52;5.80;;;;;;;4.19;100.00;101672.88;6748827;26;34995;-70
2021/12/17 00:57:40;;;;;;;10.95;6.10;;;;;;;4.19;100.00;101667.63;6749014;26;34454;-70
2021/12/17 01:00:42;;;;;;;11.02;5.87;;;;;;;4.14;100.00;101672.31;6748847;26;34216;-71
2021/12/17 01:03:46;;;;;;;9.07;5.50;;;;;;;4.12;100.00;101668.94;6748915;26;34926;-71
2021/12/17 01:06:49;;;;;;;9.75;5.35;;;;;;;4.10;100.00;101679.56;6748806;26;35595;-70
2021/12/17 01:09:52;;;;;;;10.48;5.75;;;;;;;4.06;100.00;101662.31;6748774;26;34396;-70
2021/12/17 01:12:56;;;;;;;8.30;5.18;;;;;;;4.08;100.00;101659.56;6748776;26;34243;-70
2021/12/17 01:16:00;;;;;;;9.43;4.95;;;;;;;4.10;100.00;101671.69;6748768;26;34987;-72
2021/12/17 01:35:45;;;;;;;6.18;3.97;;;;;;;4.02;100.00;101642.41;6749082;26;35458;-69
2021/12/17 01:45:04;;;;;;;8.10;4.72;;;;;;;3.93;100.00;101627.22;6748580;26;34304;-72
2021/12/17 01:48:14;;;;;;;10.38;4.68;;;;;;;4.05;100.00;101625.63;6748606;26;34375;-72
2021/12/17 02:01:29;;;;;;;8.50;4.43;;;;;;;4.04;100.00;101606.41;6749067;26;34312;-70
2021/12/17 02:04:35;;;;;;;7.55;3.70;;;;;;;3.96;100.00;101619.19;6748901;26;34928;-74
2021/12/17 02:07:38;;;;;;;7.05;4.28;;;;;;;4.08;100.00;101617.56;6748523;26;34903;-69
2021/12/17 02:31:08;;;;;;;7.37;3.85;;;;;;;4.21;95.76;101597.47;6748431;26;34673;-69
2021/12/17 02:34:54;;;;;;;5.62;2.87;;;;;;;4.27;94.52;101607.56;6748322;26;34620;-71
2021/12/17 02:37:41;;;;;;;5.30;3.10;;;;;;;4.28;93.77;101604.00;6748199;26;34393;-71
2021/12/17 02:47:37;;;;;;;9.65;2.67;;;;;;;4.20;92.62;101619.44;6748343;26;34312;-71
2021/12/17 02:50:45;;;;;;;5.72;2.97;;;;;;;4.19;91.53;101631.72;6728518;26;34140;-70
2021/12/17 02:53:48;;;;;;;7.32;3.08;;;;;;;4.26;90.72;101632.19;6748248;26;35515;-71
2021/12/17 02:56:52;;;;;;;5.93;2.40;;;;;;;4.28;90.18;101602.22;6728528;26;34191;-71
2021/12/17 02:59:55;;;;;;;5.87;2.75;;;;;;;4.26;89.92;101622.50;6748025;26;34870;-71
2021/12/17 03:02:58;;;;;;;10.40;2.92;;;;;;;4.26;89.45;101613.78;6748046;26;34541;-71
2021/12/17 03:06:01;;;;;;;6.47;2.60;;;;;;;4.22;89.16;101622.78;6748173;26;34219;-72
2021/12/17 03:09:04;;;;;;;7.57;2.80;;;;;;;4.18;89.09;101627.41;6747950;26;34908;-71
2021/12/17 03:12:15;;;;;;;3.20;2.20;;;;;;;4.20;88.80;101620.28;6728276;26;34259;-70
2021/12/17 03:15:42;;;;;;;5.00;2.55;;;;;;;4.24;88.36;101623.53;6748398;26;34326;-71
2021/12/17 03:25:12;;;;;;;5.82;2.97;;;;;;;4.23;88.12;101621.84;6749256;26;34826;-70
2021/12/17 03:28:16;;;;;;;7.10;3.10;;;;;;;4.15;88.86;101645.97;6749610;26;34288;-71
2021/12/17 03:31:20;;;;;;;6.55;2.95;;;;;;;4.11;89.39;101641.88;6749240;26;34159;-70
2021/12/17 03:34:23;;;;;;;5.93;2.97;;;;;;;4.14;89.49;101654.78;6749260;26;34643;-70
2021/12/17 03:37:26;;;;;;;6.93;3.15;;;;;;;4.12;89.60;101663.69;6749180;26;34194;-70
2021/12/17 03:40:32;;;;;;;9.00;3.97;;;;;;;4.02;90.50;101650.28;6749200;26;34881;-71
2021/12/17 03:43:35;;;;;;;8.60;3.15;;;;;;;3.93;91.17;101635.94;6749146;26;34301;-71
2021/12/17 03:46:38;;;;;;;6.32;2.78;;;;;;;3.93;91.56;101648.22;6749181;26;34371;-71
2021/12/17 03:49:43;;;;;;;5.95;3.22;;;;;;;4.07;90.76;101627.22;6749204;26;33793;-72
2021/12/17 03:52:46;;;;;;;5.72;3.28;;;;;;;4.13;90.54;101629.47;6749538;26;34993;-70
2021/12/17 03:55:49;;;;;;;4.87;2.80;;;;;;;4.16;90.42;101631.91;6749173;26;34916;-70
2021/12/17 03:58:54;;;;;;;5.87;3.00;;;;;;;4.13;90.45;101628.62;6749049;26;34964;-71
2021/12/17 04:01:58;;;;;;;8.73;3.25;;;;;;;4.07;90.22;101627.22;6749594;26;34749;-71
2021/12/17 04:05:03;;;;;;;6.68;3.58;;;;;;;4.14;90.27;101614.56;6749184;26;34200;-71
2021/12/17 04:08:08;;;;;;;5.87;3.20;;;;;;;3.91;91.36;101619.47;6749170;26;34242;-69
2021/12/17 04:11:19;;;;;;;7.95;3.28;;;;;;;3.81;92.27;101605.22;6749568;26;34392;-70
2021/12/17 04:14:32;;;;;;;8.18;3.72;;;;;;;3.91;92.17;101618.62;6749110;26;34245;-71
2021/12/17 04:17:42;;;;;;;8.32;3.62;;;;;;;3.94;92.23;101618.41;6749012;26;34971;-71
2021/12/17 04:20:45;;;;;;;;;;;;;;;3.75;93.96;101618.72;6749761;26;34217;-71
2021/12/17 04:23:50;;;;;;;9.48;4.03;;;;;;;3.75;93.96;101621.34;6749296;26;34582;-71
2021/12/17 04:26:53;;;;;;;9.25;4.07;;;;;;;3.91;93.14;101619.47;6749377;26;34332;-70
2021/12/17 04:29:57;;;;;;;10.45;4.35;;;;;;;3.85;94.11;101611.97;6749029;26;34586;-71
2021/12/17 04:33:00;;;;;;;10.05;4.12;;;;;;;3.88;94.48;101616.16;6748894;26;34782;-71
2021/12/17 04:36:04;;;;;;;10.45;4.28;;;;;;;3.94;93.18;101608.75;6749286;26;34227;-70
2021/12/17 04:39:07;;;;;;;7.93;3.05;;;;;;;3.90;93.28;101588.06;6748717;26;34989;-72
2021/12/17 04:42:20;;;;;;;8.93;3.40;;;;;;;4.07;90.46;101592.22;6748883;26;34994;-72
2021/12/17 04:45:23;;;;;;;7.35;4.20;;;;;;;4.25;87.79;101570.06;6748961;26;35469;-70
2021/12/17 04:58:31;;;;;;;8.52;3.78;;;;;;;4.08;88.80;101571.12;6748573;26;34327;-70
2021/12/17 05:01:35;;;;;;;6.40;3.05;;;;;;;4.21;88.22;101595.66;6748708;26;35030;-71
2021/12/17 05:04:38;;;;;;;6.82;3.28;;;;;;;4.22;88.08;101580.75;6749257;26;34658;-67
2021/12/17 05:07:48;;;;;;;10.82;3.40;;;;;;;4.24;87.24;101574.47;6748944;26;34918;-70
2021/12/17 05:20:50;;;;;;;6.07;2.20;;;;;;;4.49;82.51;101560.59;6748814;26;34219;-69
2021/12/17 05:23:53;;;;;;;4.55;2.78;;;;;;;4.53;82.44;101556.00;6749202;26;34280;-69
2021/12/17 05:26:56;;;;;;;10.95;3.25;;;;;;;4.43;83.47;101566.25;6748785;26;34238;-69
2021/12/17 05:30:00;;;;;;;5.65;2.65;;;;;;;4.38;83.80;101558.66;6729510;26;34283;-69
2021/12/17 05:33:06;;;;;;;4.50;2.72;;;;;;;4.34;85.00;101559.81;6748789;26;35039;-70
2021/12/17 05:36:11;;;;;;;5.05;2.80;;;;;;;4.43;84.50;101568.03;6748739;26;34420;-70
2021/12/17 05:39:15;;;;;;;7.90;3.03;;;;;;;4.32;86.32;101559.06;6748476;26;34403;-70
2021/12/17 05:42:19;;;;;;;8.05;3.10;;;;;;;4.33;85.71;101571.25;6728661;26;34329;-70
2021/12/17 05:45:34;;;;;;;7.18;3.20;;;;;;;4.30;86.73;101563.59;6728634;26;34167;-69
2021/12/17 05:48:40;;;;;;;7.78;3.70;;;;;;;4.20;87.93;101569.53;6749139;26;34969;-70
2021/12/17 05:51:43;;;;;;;8.55;4.12;;;;;;;4.13;89.13;101566.44;6748542;26;34169;-69
2021/12/17 05:54:46;;;;;;;8.45;4.40;;;;;;;4.07;90.23;101564.19;6749084;26;35521;-69
2021/12/17 05:57:49;;;;;;;9.05;4.78;;;;;;;4.01;91.76;101564.59;6748023;26;34901;-69
2021/12/17 06:00:52;;;;;;;9.40;4.20;;;;;;;4.02;91.97;101570.69;6748655;26;34313;-69
2021/12/17 06:03:58;;;;;;;8.95;4.10;;;;;;;4.00;92.02;101578.66;6749126;26;35022;-69
2021/12/17 06:07:02;;;;;;;8.85;4.47;;;;;;;3.96;92.55;101564.03;6748848;26;34164;-68
2021/12/17 06:10:08;;;;;;;8.82;4.25;;;;;;;3.99;91.94;101574.34;6748059;26;34238;-69
2021/12/17 06:13:12;;;;;;;8.38;4.25;;;;;;;3.91;92.83;101585.34;6748237;26;34862;-70
2021/12/17 06:16:15;;;;;;;8.00;3.97;;;;;;;3.92;92.85;101589.63;6748381;26;34229;-69
2021/12/17 06:19:19;;;;;;;10.32;4.20;;;;;;;3.90;92.88;101581.03;6748766;26;34307;-70
2021/12/17 06:22:22;;;;;;;6.43;3.30;;;;;;;3.95;92.54;101580.72;6728826;26;34806;-69
2021/12/17 06:25:26;;;;;;;9.65;4.47;;;;;;;3.97;92.11;101580.66;6748515;26;34321;-69
2021/12/17 06:28:30;;;;;;;14.05;4.37;;;;;;;3.89;92.68;101578.47;6747855;26;34852;-69
2021/12/17 06:31:34;;;;;;;8.98;4.18;;;;;;;3.92;92.77;101579.13;6748293;26;34520;-70
2021/12/17 06:34:38;;;;;;;8.98;4.28;;;;;;;3.81;93.62;101575.50;6745544;26;34990;-69
2021/12/17 06:37:41;;;;;;;9.48;4.07;;;;;;;3.82;93.59;101599.03;6732776;26;34296;-69
2021/12/17 06:40:45;;;;;;;14.05;3.97;;;;;;;3.79;93.79;101616.75;6748321;26;34244;-70
2021/12/17 06:43:47;;;;;;;7.43;4.45;;;;;;;3.77;94.40;101621.25;6748293;26;34271;-70
2021/12/17 06:47:01;;;;;;;13.40;4.37;;;;;;;3.71;95.77;101621.62;6748003;26;34266;-69
2021/12/17 07:23:21;;;;;;;10.02;5.10;;;;;;;3.54;98.00;101648.03;6748780;26;35073;-67
2021/12/17 07:33:20;;;;;;;8.77;4.65;;;;;;;3.48;98.31;101662.38;6749204;26;34918;-67
2021/12/17 07:36:24;;;;;;;12.70;4.70;;;;;;;3.48;98.14;101681.59;6749015;26;35322;-67
2021/12/17 07:39:28;;;;;;;8.88;4.50;;;;;;;3.49;97.99;101693.75;6748877;26;34247;-66
2021/12/17 07:42:31;;;;;;;7.60;4.97;;;;;;;3.49;98.26;101699.00;6748755;26;34465;-65
2021/12/17 07:45:37;;;;;;;8.55;4.68;;;;;;;3.52;97.87;101697.97;6749053;26;34416;-65
2021/12/17 07:48:39;;;;;;;9.40;4.12;;;;;;;3.53;97.80;101706.69;6748834;26;35474;-67
2021/12/17 07:51:42;;;;;;;14.98;4.35;;;;;;;3.60;96.94;101697.50;6748575;26;34240;-66
2021/12/17 07:54:48;;;;;;;9.13;4.53;;;;;;;3.63;96.79;101707.84;6749452;26;34429;-66
2021/12/17 07:57:51;;;;;;;10.10;4.35;;;;;;;3.70;96.10;101731.00;6748745;26;35022;-66
2021/12/17 08:00:55;;;;;;;9.27;4.28;;;;;;;3.80;95.01;101705.03;6748767;26;34993;-67
2021/12/17 08:03:58;;;;;;;12.18;4.35;;;;;;;3.78;94.91;101710.38;6729553;26;34983;-66
2021/12/17 08:07:01;;;;;;;10.25;3.92;;;;;;;3.80;94.81;101692.78;6749216;26;34941;-66
2021/12/17 08:10:04;;;;;;;8.45;3.80;;;;;;;3.93;94.07;101692.88;6748379;26;34213;-68
2021/12/17 08:13:14;;;;;;;8.77;3.90;;;;;;;4.04;92.85;101694.84;6748827;26;34241;-67
2021/12/17 08:32:15;;;;;;;9.98;3.33;;;;;;;4.29;90.55;101709.00;6749233;26;34840;-67
2021/12/17 08:35:19;;;;;;;10.25;3.42;;;;;;;4.31;90.32;101706.25;6733302;26;34417;-66
2021/12/17 08:38:22;;;;;;;5.82;3.15;;;;;;;4.33;90.57;101704.41;6746505;26;34560;-70
2021/12/17 08:41:27;;;;;;;9.60;3.50;;;;;;;4.36;90.51;101705.03;6748882;26;34277;-67
2021/12/17 08:44:29;;;;;;;6.43;3.87;;;;;;;4.33;90.60;101713.12;6748743;26;34861;-67
2021/12/17 08:47:36;;;;;;;8.57;3.17;;;;;;;4.33;90.56;101728.03;6748582;26;34181;-66
2021/12/17 08:50:39;;;;;;;9.38;4.03;;;;;;;4.41;90.26;101728.41;6748846;26;34685;-66
2021/12/17 08:53:42;;;;;;;9.93;3.60;;;;;;;4.41;89.83;101720.50;6749000;26;35458;-65
2021/12/17 08:56:48;;;;;;;5.47;2.92;;;;;;;4.45;89.89;101724.66;6748931;26;34973;-66
2021/12/17 08:59:55;;;;;;;6.75;3.33;;;;;;;4.42;89.99;101714.31;6748898;26;34267;-68
2021/12/17 09:02:59;;;;;;;8.07;3.33;;;;;;;4.46;89.81;101713.19;6748810;26;34265;-67
2021/12/17 09:06:04;;;;;;;11.68;3.50;;;;;;;4.48;89.59;101711.31;6748921;26;34857;-66
2021/12/17 09:09:08;;;;;;;6.62;3.78;;;;;;;4.55;89.12;101703.91;6748658;26;34242;-68
2021/12/17 09:12:14;;;;;;;6.43;3.15;;;;;;;4.55;88.60;101696.84;6748483;26;34178;-66
2021/12/17 09:15:17;;;;;;;10.05;3.40;;;;;;;4.68;88.11;101691.66;6748967;26;34305;-66
2021/12/17 09:18:21;;;;;;;8.45;3.87;;;;;;;4.71;87.66;101694.09;6729314;26;34232;-66
2021/12/17 09:21:27;;;;;;;9.40;3.40;;;;;;;4.76;87.39;101703.38;6749097;26;34206;-66
2021/12/17 09:24:31;;;;;;;8.10;3.58;;;;;;;4.85;87.10;101703.72;6729173;26;34328;-67
2021/12/17 09:27:35;;;;;;;5.75;3.53;;;;;;;4.80;87.63;101704.00;6748219;26;34904;-66
2021/12/17 09:30:38;;;;;;;10.45;4.07;;;;;;;4.73;87.73;101700.94;6748789;26;34854;-67
2021/12/17 09:33:45;;;;;;;9.35;3.80;;;;;;;4.76;87.87;101702.53;6748858;26;34599;-67
2021/12/17 09:36:48;;;;;;;10.45;3.87;;;;;;;4.84;87.61;101709.94;6748575;26;34242;-66
2021/12/17 09:39:51;;;;;;;8.10;3.28;;;;;;;4.78;88.19;101711.16;6748431;26;34239;-66
2021/12/17 09:42:54;;;;;;;6.15;3.70;;;;;;;4.88;87.56;101711.41;6748455;26;34481;-66
2021/12/17 09:45:57;;;;;;;7.75;3.90;;;;;;;4.82;87.92;101695.09;6747907;26;34295;-66
2021/12/17 09:49:00;;;;;;;8.23;3.62;;;;;;;4.84;88.17;101700.25;6728039;26;34248;-67
2021/12/17 09:52:03;;;;;;;7.65;2.95;;;;;;;4.89;87.55;101713.94;6748303;26;35104;-67
2021/12/17 09:55:08;;;;;;;4.90;2.92;;;;;;;5.02;86.55;101699.06;6748050;26;34252;-65
2021/12/17 09:58:11;;;;;;;7.45;3.37;;;;;;;5.03;87.00;101715.69;6748320;26;34435;-65
2021/12/17 10:01:14;;;;;;;5.47;2.75;;;;;;;5.06;86.73;101705.81;6748381;26;34197;-66
2021/12/17 10:04:26;;;;;;;10.85;3.30;;;;;;;5.15;86.21;101707.84;6748407;26;34702;-66
2021/12/17 10:07:31;;;;;;;9.38;3.22;;;;;;;5.21;85.71;101710.06;6748984;26;34819;-65
2021/12/17 10:10:37;;;;;;;8.38;3.05;;;;;;;5.33;85.05;101712.81;6748761;26;35626;-67
2021/12/17 10:13:39;;;;;;;7.05;2.70;;;;;;;5.30;84.88;101705.97;6748310;26;34854;-65
2021/12/17 10:16:46;;;;;;;7.95;3.00;;;;;;;5.30;85.09;101705.97;6748525;26;34902;-66
2021/12/17 10:19:53;;;;;;;7.28;2.80;;;;;;;5.36;84.37;101708.22;6728366;26;34919;-66
2021/12/17 10:23:04;;;;;;;5.65;2.92;;;;;;;5.38;84.34;101713.34;6748360;26;34730;-67
2021/12/17 10:26:12;;;;;;;6.30;3.00;;;;;;;5.43;83.59;101703.38;6748708;26;34298;-65
2021/12/17 10:29:23;;;;;;;6.53;2.75;;;;;;;5.51;83.46;101708.97;6748500;26;34942;-66
2021/12/17 10:32:27;;;;;;;7.28;3.20;;;;;;;5.55;83.15;101706.03;6748032;26;34822;-65
2021/12/17 10:35:47;;;;;;;9.48;2.53;;;;;;;5.53;83.75;101700.03;6732023;26;34988;-66
2021/12/17 10:38:49;;;;;;;6.75;2.70;;;;;;;5.63;82.52;101697.59;6728205;26;34195;-67
2021/12/17 10:41:53;;;;;;;9.95;3.62;;;;;;;5.60;82.94;101695.19;6691293;26;35488;-66
2021/12/17 10:45:11;;;;;;;7.82;2.80;;;;;;;5.61;83.47;101681.94;6693015;26;34619;-66
2021/12/17 10:54:44;;;;;;;8.18;2.83;;;;;;;5.66;83.37;101690.34;6691073;26;35043;-68
2021/12/17 10:57:49;;;;;;;8.18;2.70;;;;;;;5.69;82.81;101700.69;6690154;26;33738;-66
2021/12/17 11:01:05;;;;;;;6.30;2.50;;;;;;;5.78;81.83;101699.19;6690990;26;34408;-67
2021/12/17 11:04:16;;;;;;;8.50;2.60;;;;;;;5.82;80.69;101698.03;6690778;26;34355;-66
2021/12/17 11:07:19;;;;;;;6.78;2.62;;;;;;;5.89;80.20;101693.25;6690726;26;34968;-65
2021/12/17 11:10:31;;;;;;;6.47;2.62;;;;;;;5.94;80.14;101699.03;6691006;26;34347;-65
2021/12/17 11:13:56;;;;;;;5.90;1.75;;;;;;;5.99;79.37;101692.50;6690863;26;33647;-66
2021/12/17 11:16:58;;;;;;;7.35;2.90;;;;;;;5.98;79.68;101688.19;6690744;26;34166;-66
2021/12/17 11:20:08;;;;;;;8.70;2.80;;;;;;;5.94;80.24;101678.81;6690619;26;34960;-66
2021/12/17 11:23:14;;;;;;;;;;;;;;;5.95;80.27;101690.19;6690380;26;34191;-65
2021/12/17 11:26:17;;;;;;;10.15;2.92;;;;;;;5.95;80.20;101693.66;6690637;26;34613;-65
2021/12/17 11:29:20;;;;;;;5.95;2.58;;;;;;;6.06;79.82;101691.13;6690545;26;34979;-68
2021/12/17 11:32:26;;;;;;;6.07;3.22;;;;;;;6.09;79.93;101685.66;6690445;26;34271;-68
2021/12/17 11:35:30;;;;;;;8.13;2.80;;;;;;;6.13;79.78;101691.53;6680452;26;34603;-65
2021/12/17 11:38:52;;;;;;;7.18;2.75;;;;;;;6.05;79.77;101683.34;6690480;26;34407;-66
2021/12/17 11:42:18;;;;;;;10.63;2.83;;;;;;;6.08;79.26;101675.22;6746972;26;34265;-66
2021/12/17 11:45:28;;;;;;;13.52;2.37;;;;;;;6.19;78.13;101687.63;6749087;26;34233;-66
2021/12/17 11:48:34;;;;;;;13.40;3.85;;;;;;;6.16;78.68;101662.31;6749652;26;34220;-67
2021/12/17 11:51:37;;;;;;;9.43;2.37;;;;;;;6.17;78.94;101665.81;6749017;26;35031;-65
2021/12/17 11:54:40;;;;;;;5.15;2.50;;;;;;;6.19;77.49;101662.12;6748876;26;34209;-65
2021/12/17 11:57:43;;;;;;;5.25;2.40;;;;;;;6.25;77.88;101674.84;6749094;26;34265;-67
2021/12/17 12:00:45;;;;;;;6.43;2.20;;;;;;;6.26;77.96;101679.19;6728779;26;34855;-66
2021/12/17 12:03:48;;;;;;;8.88;2.40;;;;;;;6.21;78.52;101672.53;6748807;26;34494;-67
2021/12/17 12:07:01;;;;;;;9.43;2.62;;;;;;;6.33;78.01;101691.00;6748898;26;34930;-67
2021/12/17 12:10:11;;;;;;;6.45;2.15;;;;;;;6.50;77.20;101672.16;6748833;26;34608;-67
2021/12/17 12:13:43;;;;;;;6.78;2.70;;;;;;;6.55;76.38;101662.12;6748930;26;34989;-66
2021/12/17 12:16:46;;;;;;;5.60;2.20;;;;;;;6.68;75.71;101653.34;6748853;26;34998;-68
2021/12/17 12:19:49;;;;;;;9.35;2.30;;;;;;;6.52;75.69;101662.34;6748692;26;34949;-65
2021/12/17 12:23:21;;;;;;;3.95;2.20;;;;;;;6.50;75.79;101655.50;6748793;26;34271;-68
2021/12/17 12:26:26;;;;;;;7.35;2.45;;;;;;;6.31;76.74;101677.06;6728933;26;34315;-67
2021/12/17 12:29:29;;;;;;;5.40;2.33;;;;;;;6.47;76.58;101664.47;6748688;26;34882;-67
2021/12/17 12:32:32;;;;;;;7.57;2.28;;;;;;;6.45;76.86;101663.75;6748699;26;34853;-66
2021/12/17 12:35:36;;;;;;;7.75;2.92;;;;;;;6.44;76.76;101675.22;6748705;26;34297;-66
2021/12/17 12:38:39;;;;;;;8.77;2.20;;;;;;;6.42;76.64;101671.03;6748739;26;34710;-65
2021/12/17 12:42:17;;;;;;;9.43;2.25;;;;;;;6.38;77.23;101667.78;6719302;26;34273;-66
2021/12/17 12:45:19;;;;;;;7.85;2.55;;;;;;;6.31;76.76;101655.97;6720032;26;34190;-66
2021/12/17 12:48:38;;;;;;;10.10;2.47;;;;;;;6.24;76.81;101654.75;6720201;26;34078;-66
2021/12/17 12:51:41;;;;;;;6.10;2.20;;;;;;;6.26;76.52;101668.63;6720109;26;34274;-66
2021/12/17 12:54:48;;;;;;;6.37;2.75;;;;;;;6.20;77.32;101658.53;6720099;26;34298;-67
2021/12/17 12:58:06;;;;;;;9.98;2.20;;;;;;;6.15;77.06;101658.00;6719858;26;34303;-65
2021/12/17 13:01:13;;;;;;;5.82;2.05;;;;;;;6.24;76.75;101649.47;6719970;26;34986;-66
2021/12/17 13:04:15;;;;;;;6.20;1.90;;;;;;;6.17;75.93;101642.94;6719929;26;34157;-68
2021/12/17 13:07:33;;;;;;;8.63;2.55;;;;;;;6.19;75.56;101663.91;6720017;26;35044;-66
2021/12/17 13:10:39;;;;;;;7.05;2.30;;;;;;;6.18;75.79;101655.16;6718902;26;34265;-66
2021/12/17 13:13:52;;;;;;;7.12;2.15;;;;;;;6.15;75.96;101655.38;6720014;26;34219;-66
2021/12/17 13:17:17;;;;;;;7.78;2.20;;;;;;;6.12;76.19;101659.06;6720097;26;34903;-65
2021/12/17 13:20:53;;;;;;;7.03;2.10;;;;;;;6.12;76.69;101651.16;6720151;26;34066;-66
2021/12/17 13:24:16;;;;;;;5.68;2.47;;;;;;;6.01;77.48;101643.16;6720297;26;34886;-65
2021/12/17 13:27:19;;;;;;;7.15;1.98;;;;;;;5.98;78.00;101632.03;6718705;26;34346;-66
2021/12/17 13:30:26;;;;;;;7.95;2.22;;;;;;;5.93;78.25;101634.13;6719252;26;34211;-66
2021/12/17 13:33:37;;;;;;;10.75;2.50;;;;;;;5.94;78.33;101641.94;6718747;26;34304;-67
2021/12/17 13:36:51;;;;;;;10.93;2.47;;;;;;;5.89;78.63;101651.09;6719572;26;34578;-66
2021/12/17 13:40:00;;;;;;;6.78;2.30;;;;;;;5.80;79.25;101639.38;6727122;26;34861;-66
2021/12/17 13:43:03;;;;;;;5.07;2.30;;;;;;;5.80;79.66;101641.19;6748760;26;34431;-66
2021/12/17 13:46:07;;;;;;;6.93;2.65;;;;;;;5.72;79.95;101641.69;6748430;26;34557;-65
2021/12/17 13:49:09;;;;;;;6.37;2.20;;;;;;;5.70;80.37;101630.44;6749154;26;34905;-65
2021/12/17 13:52:12;;;;;;;5.25;2.60;;;;;;;5.69;79.81;101642.75;6748339;26;34208;-65
2021/12/17 13:55:19;;;;;;;4.90;2.58;;;;;;;5.71;80.05;101657.63;6748305;26;34989;-66
2021/12/17 13:58:24;;;;;;;6.70;2.53;;;;;;;5.67;79.65;101657.81;6728708;26;34224;-66
2021/12/17 14:01:27;;;;;;;4.80;2.08;;;;;;;5.69;79.81;101665.59;6727584;26;34308;-65
2021/12/17 14:04:30;;;;;;;9.68;3.00;;;;;;;5.67;79.36;101643.78;6748321;26;34332;-66
2021/12/17 14:07:35;;;;;;;6.78;2.30;;;;;;;5.59;79.74;101659.28;6747851;26;34360;-68
2021/12/17 14:10:39;;;;;;;10.05;2.58;;;;;;;5.58;79.55;101658.44;6748757;26;34847;-66
2021/12/17 14:13:43;;;;;;;6.68;2.25;;;;;;;5.55;79.97;101668.34;6748475;26;34884;-66
2021/12/17 14:16:56;;;;;;;10.07;2.12;;;;;;;5.47;80.00;101657.50;6748118;26;34448;-66
2021/12/17 14:20:09;;;;;;;6.55;2.25;;;;;;;5.39;80.77;101649.25;6748358;26;34824;-67
2021/12/17 14:23:38;;;;;;;5.93;2.35;;;;;;;5.35;80.86;101639.87;6748672;26;34246;-66
2021/12/17 14:26:46;;;;;;;7.47;2.70;;;;;;;5.31;81.15;101644.53;6728408;26;34184;-65
2021/12/17 14:30:05;;;;;;;6.35;2.70;;;;;;;5.23;81.58;101634.50;6748568;26;34191;-65
2021/12/17 14:33:16;;;;;;;6.80;2.37;;;;;;;5.12;82.10;101636.19;6748185;26;34914;-66
2021/12/17 14:36:41;;;;;;;7.25;2.70;;;;;;;5.07;82.42;101628.59;6747957;26;34838;-67
2021/12/17 14:39:47;;;;;;;7.70;2.50;;;;;;;5.12;82.24;101633.56;6748063;26;34983;-66
2021/12/17 14:42:57;;;;;;;7.85;2.33;;;;;;;5.05;82.45;101634.88;6747582;26;34372;-69
2021/12/17 14:46:30;;;;;;;8.45;2.55;;;;;;;5.02;82.57;101635.94;6748042;26;34564;-67
2021/12/17 15:03:19;;;;;;;10.17;3.50;;;;;;;4.84;84.32;101603.00;6711095;26;34924;-67
2021/12/17 15:06:26;;;;;;;9.13;2.90;;;;;;;4.76;84.84;101637.66;6747550;26;34946;-66
2021/12/17 15:09:33;;;;;;;7.45;2.47;;;;;;;4.68;85.06;101629.44;6727830;26;34110;-67
2021/12/17 15:12:38;;;;;;;8.73;3.03;;;;;;;4.72;84.23;101630.91;6748069;26;34895;-67
2021/12/17 15:15:41;;;;;;;8.20;3.00;;;;;;;4.75;83.81;101629.84;6747550;26;34216;-65
2021/12/17 15:18:43;;;;;;;6.07;2.40;;;;;;;4.66;84.18;101626.03;6748130;26;34217;-68
2021/12/17 15:21:46;;;;;;;11.68;2.97;;;;;;;4.70;83.61;101630.16;6748670;26;35468;-65
2021/12/17 15:25:12;;;;;;;10.02;2.62;;;;;;;4.64;84.01;101627.94;6748783;26;35053;-66
2021/12/17 15:28:18;;;;;;;9.45;2.65;;;;;;;4.63;84.06;101618.38;6749305;26;34940;-65
2021/12/17 15:31:21;;;;;;;7.95;2.62;;;;;;;4.68;83.91;101624.16;6748686;26;35038;-65
2021/12/17 15:34:25;;;;;;;10.85;2.72;;;;;;;4.63;83.99;101634.13;6729219;26;34899;-65
2021/12/17 15:37:27;;;;;;;14.30;3.05;;;;;;;4.66;83.91;101630.44;6749008;26;34934;-65
2021/12/17 15:40:30;;;;;;;7.10;2.62;;;;;;;4.59;84.45;101634.44;6748860;26;34433;-67
2021/12/17 15:43:33;;;;;;;6.28;2.50;;;;;;;4.58;84.65;101640.63;6748576;26;34143;-67
2021/12/17 15:46:37;;;;;;;5.53;2.70;;;;;;;4.59;84.39;101653.69;6748971;26;35103;-65
2021/12/17 15:49:40;;;;;;;7.32;3.00;;;;;;;4.57;84.55;101644.19;6748840;26;35089;-66
2021/12/17 15:52:45;;;;;;;5.80;2.83;;;;;;;4.56;84.79;101629.34;6748890;26;34173;-65
2021/12/17 15:55:48;;;;;;;6.57;2.72;;;;;;;4.51;84.96;101632.28;6748920;26;34170;-66
2021/12/17 15:58:51;;;;;;;8.60;2.70;;;;;;;4.54;84.94;101653.13;6729047;26;34259;-65
2021/12/17 16:01:54;;;;;;;9.32;3.10;;;;;;;4.52;85.06;101633.97;6749426;26;34331;-67
2021/12/17 16:04:57;;;;;;;7.90;3.22;;;;;;;4.40;85.58;101636.56;6748558;26;34384;-66
2021/12/17 16:08:00;;;;;;;6.55;2.58;;;;;;;4.38;85.74;101640.13;6748664;26;34189;-65
2021/12/17 16:21:07;;;;;;;6.62;3.30;;;;;;;4.35;85.65;101648.19;6749302;26;34197;-67
2021/12/17 16:24:14;;;;;;;7.87;2.47;;;;;;;4.33;85.75;101641.34;6749220;26;34708;-66
2021/12/17 16:27:17;;;;;;;8.68;3.05;;;;;;;4.23;86.42;101646.34;6729101;26;34273;-67
2021/12/17 16:30:21;;;;;;;5.57;2.08;;;;;;;4.28;85.68;101652.16;6748394;26;34222;-65
2021/12/17 16:33:23;;;;;;;8.77;3.17;;;;;;;4.32;85.52;101656.25;6748749;26;34885;-65
2021/12/17 16:36:28;;;;;;;9.40;3.20;;;;;;;4.25;85.95;101648.88;6749185;26;34811;-65
2021/12/17 16:39:30;;;;;;;8.45;3.10;;;;;;;4.20;86.08;101650.94;6748452;26;34944;-65
2021/12/17 16:42:34;;;;;;;9.23;3.28;;;;;;;4.17;86.27;101636.22;6748520;26;34245;-65
2021/12/17 16:45:41;;;;;;;7.28;3.15;;;;;;;4.20;86.30;101650.94;6709960;26;34256;-65
2021/12/17 16:48:48;;;;;;;11.02;3.37;;;;;;;4.19;86.27;101654.50;6729743;26;34293;-66
2021/12/17 16:51:51;;;;;;;11.77;3.47;;;;;;;4.14;86.22;101646.06;6748614;26;34238;-65
2021/12/17 16:54:58;;;;;;;6.65;2.78;;;;;;;4.10;86.50;101641.94;6748928;26;34248;-66
2021/12/17 16:58:01;;;;;;;9.32;3.42;;;;;;;4.20;85.78;101650.94;6748640;26;34331;-65
2021/12/17 17:01:05;;;;;;;8.32;2.90;;;;;;;4.18;86.23;101637.06;6748247;26;34201;-66
2021/12/17 17:04:10;;;;;;;11.30;3.75;;;;;;;4.14;86.46;101640.81;6748534;26;34327;-65
2021/12/17 17:07:14;;;;;;;12.68;3.83;;;;;;;4.08;87.00;101630.69;6748038;26;34309;-66
2021/12/17 17:10:16;;;;;;;6.68;3.20;;;;;;;4.10;87.21;101637.53;6748589;26;34891;-65
2021/12/17 17:13:21;;;;;;;6.97;3.08;;;;;;;4.05;87.66;101641.38;6729490;26;34956;-64
2021/12/17 17:16:24;;;;;;;7.50;3.15;;;;;;;4.01;87.94;101635.50;6748845;26;34224;-65
2021/12/17 17:19:27;;;;;;;10.75;4.68;;;;;;;3.98;88.03;101640.91;6748743;26;34391;-67
2021/12/17 17:22:29;;;;;;;8.80;3.25;;;;;;;4.01;87.78;101646.00;6748508;26;34977;-65
2021/12/17 17:25:32;;;;;;;9.00;4.00;;;;;;;3.99;88.09;101644.38;6748265;26;34531;-65
2021/12/17 17:28:36;;;;;;;11.77;3.67;;;;;;;3.99;88.08;101637.34;6748779;26;34306;-66
2021/12/17 17:31:39;;;;;;;7.60;3.47;;;;;;;4.04;87.72;101630.03;6748525;26;34896;-66
2021/12/17 17:34:42;;;;;;;8.32;3.67;;;;;;;3.97;88.04;101631.34;6744887;26;34360;-66
2021/12/17 17:37:45;;;;;;;7.97;3.87;;;;;;;3.93;88.31;101635.94;6734819;26;34299;-66
2021/12/17 17:40:48;;;;;;;10.70;4.22;;;;;;;3.94;88.45;101645.53;6748410;26;34177;-65
2021/12/17 17:43:57;;;;;;;11.20;4.00;;;;;;;3.94;88.82;101648.16;6748311;26;34947;-65
2021/12/17 17:47:00;;;;;;;12.93;4.50;;;;;;;3.86;88.89;101631.19;6748485;26;34904;-65
2021/12/17 17:50:04;;;;;;;14.15;4.30;;;;;;;3.76;89.89;101638.78;6748520;26;34142;-66
2021/12/17 17:53:09;;;;;;;6.82;3.75;;;;;;;3.67;90.81;101641.97;6748537;26;34657;-65
2021/12/17 17:56:12;;;;;;;7.93;3.70;;;;;;;3.75;90.58;101623.97;6748358;26;34923;-67
2021/12/17 17:59:14;;;;;;;10.15;4.15;;;;;;;3.79;90.28;101628.09;6748508;26;34362;-67
2021/12/17 18:02:17;;;;;;;6.50;3.90;;;;;;;3.80;90.61;101623.69;6748443;26;34992;-65
2021/12/17 18:05:21;;;;;;;14.20;4.25;;;;;;;3.80;90.45;101629.78;6748847;26;34240;-65
2021/12/17 18:08:25;;;;;;;6.80;3.33;;;;;;;3.81;90.04;101626.22;6748360;26;34195;-65